createdAt,value
2019-02-15T00:00:48.890Z,33.75
2019-02-15T00:03:18.368Z,35.73
2019-02-15T00:05:48.370Z,38.63
2019-02-15T00:08:17.884Z,38.15
2019-02-15T00:10:47.348Z,36.83
2019-02-15T00:13:16.876Z,36.58
2019-02-15T00:15:46.449Z,35.50
2019-02-15T00:18:40.844Z,35.95
2019-02-15T00:21:18.809Z,36.40
2019-02-15T00:23:48.356Z,36.10
2019-02-15T00:26:17.834Z,37.23
2019-02-15T00:28:47.318Z,33.88
2019-02-15T00:31:19.724Z,35.88
2019-02-15T00:33:49.289Z,38.55
2019-02-15T00:36:18.732Z,36.58
2019-02-15T00:38:48.233Z,37.08
2019-02-15T00:41:17.640Z,40.23
2019-02-15T00:43:47.228Z,36.98
2019-02-15T00:46:35.641Z,40.20
2019-02-15T00:49:06.696Z,41.98
2019-02-15T00:52:04.120Z,43.48
2019-02-15T00:54:42.604Z,44.38
2019-02-15T00:57:29.399Z,38.85
2019-02-15T01:00:17.768Z,42.13
2019-02-15T01:02:54.846Z,44.60
2019-02-15T01:05:35.437Z,39.40
2019-02-15T01:08:18.530Z,40.03
2019-02-15T01:11:05.536Z,39.10
2019-02-15T01:13:34.902Z,40.28
2019-02-15T01:16:04.333Z,39.27
2019-02-15T01:18:33.791Z,35.83
2019-02-15T01:21:03.507Z,38.20
2019-02-15T01:23:32.971Z,42.27
2019-02-15T01:26:15.347Z,43.38
2019-02-15T01:29:09.830Z,41.60
2019-02-15T01:31:58.208Z,42.83
2019-02-15T01:35:01.798Z,43.15
2019-02-15T01:37:53.232Z,42.85
2019-02-15T01:40:35.251Z,44.93
2019-02-15T01:43:39.881Z,45.98
2019-02-15T01:46:15.294Z,46.50
2019-02-15T01:48:44.735Z,44.98
2019-02-15T01:51:14.198Z,43.10
2019-02-15T01:53:43.674Z,47.98
2019-02-15T01:56:13.124Z,51.10
2019-02-15T01:58:42.558Z,49.15
2019-02-15T02:01:13.557Z,49.20
2019-02-15T02:03:42.993Z,49.53
2019-02-15T02:06:12.494Z,50.73
2019-02-15T02:08:42.011Z,48.68
2019-02-15T02:11:11.423Z,47.43
2019-02-15T02:13:49.073Z,47.73
2019-02-15T02:16:11.981Z,52.20
2019-02-15T02:18:41.409Z,53.65
2019-02-15T02:21:10.902Z,52.65
2019-02-15T02:23:40.327Z,50.78
2019-02-15T02:26:09.795Z,53.05
2019-02-15T02:28:39.199Z,53.08
2019-02-15T02:31:08.734Z,52.85
2019-02-15T02:33:38.140Z,52.25
2019-02-15T02:36:07.655Z,54.60
2019-02-15T02:38:37.106Z,56.58
2019-02-15T02:41:06.623Z,52.13
2019-02-15T02:43:36.084Z,53.13
2019-02-15T02:46:05.499Z,54.10
2019-02-15T02:48:34.982Z,55.63
2019-02-15T02:51:04.522Z,55.10
2019-02-15T02:53:33.944Z,54.10
2019-02-15T02:56:03.390Z,53.35
2019-02-15T02:58:32.834Z,53.55
2019-02-15T03:01:02.300Z,55.05
2019-02-15T03:03:31.727Z,53.60
2019-02-15T03:06:01.192Z,57.60
2019-02-15T03:08:30.676Z,53.20
2019-02-15T03:11:00.161Z,55.08
2019-02-15T03:13:29.676Z,56.00
2019-02-15T03:15:59.124Z,58.25
2019-02-15T03:18:28.573Z,54.35
2019-02-15T03:20:58.069Z,51.95
2019-02-15T03:23:27.477Z,53.15
2019-02-15T03:25:56.998Z,54.70
2019-02-15T03:28:26.464Z,45.55
2019-02-15T03:30:55.909Z,52.13
2019-02-15T03:33:25.348Z,53.85
2019-02-15T03:36:00.966Z,50.40
2019-02-15T03:38:36.324Z,53.05
2019-02-15T03:41:08.304Z,53.30
2019-02-15T03:43:37.829Z,53.20
2019-02-15T03:46:07.355Z,53.70
2019-02-15T03:48:36.802Z,53.85
2019-02-15T03:51:06.218Z,53.85
2019-02-15T03:53:35.737Z,54.73
2019-02-15T03:56:05.178Z,53.80
2019-02-15T03:58:34.628Z,54.85
2019-02-15T04:01:04.072Z,55.43
2019-02-15T04:03:33.558Z,55.70
2019-02-15T04:06:03.035Z,56.25
2019-02-15T04:08:32.492Z,57.48
2019-02-15T04:11:02.018Z,56.18
2019-02-15T04:13:31.468Z,55.38
2019-02-15T04:16:00.946Z,58.10
2019-02-15T04:18:30.363Z,55.73
2019-02-15T04:20:59.828Z,52.40
2019-02-15T04:23:29.272Z,55.58
2019-02-15T04:25:58.722Z,55.23
2019-02-15T04:28:28.212Z,54.00
2019-02-15T04:30:57.666Z,53.78
2019-02-15T04:33:27.110Z,53.65
2019-02-15T04:35:56.829Z,52.93
2019-02-15T04:38:26.284Z,52.85
2019-02-15T04:40:55.757Z,54.63
2019-02-15T04:43:25.125Z,53.45
2019-02-15T04:45:54.584Z,56.48
2019-02-15T04:48:24.005Z,58.68
2019-02-15T04:50:53.475Z,59.83
2019-02-15T04:53:22.965Z,58.57
2019-02-15T04:55:52.478Z,59.88
2019-02-15T04:58:21.885Z,61.25
2019-02-15T05:00:51.307Z,60.08
2019-02-15T05:03:20.750Z,63.02
2019-02-15T05:05:50.251Z,61.92
2019-02-15T05:08:19.760Z,57.43
2019-02-15T05:10:49.271Z,59.85
2019-02-15T05:13:18.713Z,60.08
2019-02-15T05:15:48.120Z,63.70
2019-02-15T05:18:23.128Z,64.74
2019-02-15T05:20:52.561Z,62.48
2019-02-15T05:23:21.992Z,61.20
2019-02-15T05:25:51.430Z,63.87
2019-02-15T05:28:20.835Z,61.88
2019-02-15T05:30:50.289Z,60.70
2019-02-15T05:33:19.732Z,59.50
2019-02-15T05:35:49.237Z,58.08
2019-02-15T05:38:18.657Z,58.25
2019-02-15T05:40:48.071Z,56.45
2019-02-15T05:43:17.493Z,56.88
2019-02-15T05:45:46.998Z,57.10
2019-02-15T05:48:16.413Z,56.28
2019-02-15T05:50:45.840Z,55.50
2019-02-15T05:53:15.383Z,61.33
2019-02-15T05:55:44.873Z,62.43
2019-02-15T05:58:14.320Z,59.27
2019-02-15T06:00:43.809Z,57.90
2019-02-15T06:03:13.892Z,54.40
2019-02-15T06:05:43.378Z,58.47
2019-02-15T06:08:12.886Z,56.15
2019-02-15T06:10:42.343Z,55.38
2019-02-15T06:13:11.783Z,56.85
2019-02-15T06:15:41.213Z,57.25
2019-02-15T06:18:10.644Z,57.78
2019-02-15T06:20:40.159Z,54.27
2019-02-15T06:23:09.722Z,55.63
2019-02-15T06:25:39.216Z,59.65
2019-02-15T06:28:10.413Z,56.98
2019-02-15T06:30:40.128Z,55.40
2019-02-15T06:33:10.018Z,58.00
2019-02-15T06:35:39.602Z,57.93
2019-02-15T06:38:09.091Z,55.23
2019-02-15T06:40:38.554Z,57.85
2019-02-15T06:43:08.114Z,57.30
2019-02-15T06:45:37.616Z,53.63
2019-02-15T06:48:07.101Z,54.67
2019-02-15T06:50:36.580Z,53.15
2019-02-15T06:53:06.174Z,52.00
2019-02-15T06:55:35.592Z,54.90
2019-02-15T06:58:05.051Z,54.63
2019-02-15T07:00:49.019Z,52.25
2019-02-15T07:03:49.358Z,52.73
2019-02-15T07:06:19.175Z,52.88
2019-02-15T07:08:48.667Z,54.80
2019-02-15T07:11:18.180Z,50.70
2019-02-15T07:13:48.059Z,51.98
2019-02-15T07:16:17.515Z,48.92
2019-02-15T07:18:47.036Z,50.28
2019-02-15T07:21:16.437Z,53.38
2019-02-15T07:23:45.836Z,50.45
2019-02-15T07:26:15.372Z,49.18
2019-02-15T07:28:44.918Z,47.27
2019-02-15T07:31:14.382Z,48.70
2019-02-15T07:33:43.808Z,45.85
2019-02-15T07:36:13.326Z,46.15
2019-02-15T07:38:42.738Z,46.63
2019-02-15T07:41:12.168Z,42.30
2019-02-15T07:43:41.682Z,41.80
2019-02-15T07:46:11.060Z,44.10
2019-02-15T07:48:40.497Z,39.20
2019-02-15T07:51:10.139Z,40.77
2019-02-15T07:53:39.708Z,38.85
2019-02-15T07:56:09.113Z,39.78
2019-02-15T07:58:38.575Z,40.70
2019-02-15T08:01:08.016Z,42.85
2019-02-15T08:03:37.444Z,73.17
2019-02-15T08:06:06.891Z,95.12
2019-02-15T08:08:36.417Z,261.53
2019-02-15T08:11:05.927Z,247.50
2019-02-15T08:13:35.460Z,62.75
2019-02-15T08:16:04.943Z,57.65
2019-02-15T08:18:34.456Z,34.67
2019-02-15T08:21:03.976Z,33.18
2019-02-15T08:23:33.519Z,145.87
2019-02-15T08:26:03.084Z,240.00
2019-02-15T08:28:32.873Z,41.85
2019-02-15T08:31:02.303Z,133.45
2019-02-15T08:33:31.733Z,137.85
2019-02-15T08:36:01.226Z,136.18
2019-02-15T08:38:30.683Z,115.05
2019-02-15T08:41:00.233Z,73.50
2019-02-15T08:43:29.709Z,97.25
2019-02-15T08:46:02.731Z,34.58
2019-02-15T08:48:30.307Z,34.10
2019-02-15T08:50:59.853Z,32.23
2019-02-15T08:53:29.309Z,32.98
2019-02-15T08:55:58.752Z,31.37
2019-02-15T08:58:28.307Z,29.75
2019-02-15T09:00:58.177Z,32.53
2019-02-15T09:03:34.858Z,31.99
2019-02-15T09:06:04.324Z,30.68
2019-02-15T09:08:33.808Z,33.47
2019-02-15T09:11:03.291Z,32.67
2019-02-15T09:13:32.980Z,31.85
2019-02-15T09:16:10.108Z,31.73
2019-02-15T09:18:33.463Z,32.50
2019-02-15T09:21:03.014Z,32.55
2019-02-15T09:23:32.844Z,31.07
2019-02-15T09:26:02.297Z,30.93
2019-02-15T09:28:36.636Z,32.35
2019-02-15T09:31:06.081Z,23.15
2019-02-15T09:33:35.473Z,30.12
2019-02-15T09:36:04.924Z,31.00
2019-02-15T09:38:34.497Z,27.07
2019-02-15T09:41:03.970Z,28.65
2019-02-15T09:43:33.411Z,32.17
2019-02-15T09:46:02.824Z,29.15
2019-02-15T09:48:32.393Z,26.30
2019-02-15T09:51:01.964Z,25.32
2019-02-15T09:53:31.593Z,28.85
2019-02-15T09:56:01.284Z,26.45
2019-02-15T09:58:30.695Z,27.02
2019-02-15T10:01:00.266Z,26.75
2019-02-15T10:03:29.707Z,26.03
2019-02-15T10:05:59.110Z,28.87
2019-02-15T10:08:28.657Z,25.80
2019-02-15T10:10:58.192Z,28.30
2019-02-15T10:13:27.594Z,21.27
2019-02-15T10:15:57.070Z,27.45
2019-02-15T10:18:26.492Z,26.17
2019-02-15T10:20:55.901Z,27.67
2019-02-15T10:23:25.312Z,24.18
2019-02-15T10:25:54.738Z,26.70
2019-02-15T10:28:24.157Z,21.23
2019-02-15T10:30:53.584Z,26.77
2019-02-15T10:33:22.978Z,28.15
2019-02-15T10:35:52.429Z,28.52
2019-02-15T10:38:21.856Z,26.93
2019-02-15T10:40:51.325Z,26.53
2019-02-15T10:43:20.710Z,27.90
2019-02-15T10:45:50.117Z,26.00
2019-02-15T10:48:19.596Z,28.07
2019-02-15T10:50:49.160Z,23.47
2019-02-15T10:53:18.646Z,28.67
2019-02-15T10:55:48.061Z,29.27
2019-02-15T10:58:17.766Z,31.23
2019-02-15T11:00:47.298Z,31.33
2019-02-15T11:03:16.803Z,31.97
2019-02-15T11:05:46.376Z,29.50
2019-02-15T11:08:15.890Z,31.77
2019-02-15T11:10:45.454Z,31.00
2019-02-15T11:13:15.108Z,33.98
2019-02-15T11:15:44.651Z,35.00
2019-02-15T11:18:14.391Z,34.58
2019-02-15T11:20:43.861Z,30.45
2019-02-15T11:23:13.411Z,30.82
2019-02-15T11:25:43.110Z,32.55
2019-02-15T11:28:12.588Z,33.23
2019-02-15T11:30:42.142Z,33.95
2019-02-15T11:33:11.579Z,34.08
2019-02-15T11:35:41.068Z,31.80
2019-02-15T11:38:10.641Z,32.98
2019-02-15T11:40:40.223Z,36.38
2019-02-15T11:43:09.649Z,29.05
2019-02-15T11:45:39.152Z,31.20
2019-02-15T11:48:08.551Z,35.48
2019-02-15T11:50:38.029Z,18.05
2019-02-15T11:53:09.029Z,34.57
2019-02-15T11:55:38.645Z,26.73
2019-02-15T11:58:08.107Z,33.25
2019-02-15T12:00:37.975Z,30.15
2019-02-15T12:03:07.429Z,35.40
2019-02-15T12:05:37.067Z,32.53
2019-02-15T12:08:06.469Z,35.70
2019-02-15T12:10:35.986Z,38.10
2019-02-15T12:13:05.432Z,35.92
2019-02-15T12:15:34.883Z,38.63
2019-02-15T12:18:05.255Z,40.17
2019-02-15T12:20:34.909Z,39.38
2019-02-15T12:23:04.413Z,39.95
2019-02-15T12:25:33.894Z,38.67
2019-02-15T12:28:03.447Z,37.05
2019-02-15T12:30:32.913Z,41.85
2019-02-15T12:33:02.577Z,37.05
2019-02-15T12:35:32.336Z,40.55
2019-02-15T12:38:01.940Z,41.13
2019-02-15T12:40:31.411Z,38.17
2019-02-15T12:43:00.829Z,37.90
2019-02-15T12:45:30.292Z,38.20
2019-02-15T12:47:59.711Z,41.83
2019-02-15T12:50:29.308Z,38.30
2019-02-15T12:52:58.741Z,41.20
2019-02-15T12:55:28.156Z,39.35
2019-02-15T12:57:57.674Z,36.90
2019-02-15T13:00:27.220Z,39.25
2019-02-15T13:02:56.702Z,38.58
2019-02-15T13:05:26.258Z,39.42
2019-02-15T13:07:55.854Z,41.68
2019-02-15T13:10:26.533Z,42.38
2019-02-15T13:12:56.087Z,40.43
2019-02-15T13:15:26.284Z,42.60
2019-02-15T13:17:55.814Z,42.40
2019-02-15T13:20:25.922Z,43.92
2019-02-15T13:22:55.667Z,43.33
2019-02-15T13:25:25.365Z,41.68
2019-02-15T13:27:54.865Z,43.20
2019-02-15T13:30:24.393Z,42.85
2019-02-15T13:32:53.818Z,43.37
2019-02-15T13:35:23.665Z,46.55
2019-02-15T13:37:53.273Z,45.78
2019-02-15T13:40:22.864Z,48.10
2019-02-15T13:42:52.406Z,49.70
2019-02-15T13:45:21.856Z,50.17
2019-02-15T13:47:51.382Z,50.67
2019-02-15T13:50:20.999Z,50.13
2019-02-15T13:52:50.670Z,50.10
2019-02-15T13:55:20.110Z,49.58
2019-02-15T13:57:49.564Z,48.63
2019-02-15T14:00:19.001Z,60.35
2019-02-15T14:02:48.567Z,51.05
2019-02-15T14:05:18.236Z,51.65
2019-02-15T14:07:48.043Z,51.77
2019-02-15T14:10:17.725Z,51.63
2019-02-15T14:12:47.446Z,54.53
2019-02-15T14:15:17.090Z,53.00
2019-02-15T14:17:48.487Z,53.33
2019-02-15T14:20:18.804Z,51.25
2019-02-15T14:22:48.659Z,52.27
2019-02-15T14:25:18.253Z,49.95
2019-02-15T14:27:48.080Z,51.97
2019-02-15T14:30:17.859Z,52.58
2019-02-15T14:32:47.438Z,52.58
2019-02-15T14:35:17.103Z,50.15
2019-02-15T14:37:46.653Z,51.70
2019-02-15T14:40:16.239Z,53.10
2019-02-15T14:42:45.793Z,54.05
2019-02-15T14:45:15.487Z,52.30
2019-02-15T14:47:53.952Z,49.18
2019-02-15T14:50:16.372Z,53.52
2019-02-15T14:52:45.899Z,54.65
2019-02-15T14:55:15.501Z,56.45
2019-02-15T14:57:45.028Z,55.73
2019-02-15T15:00:14.734Z,50.67
2019-02-15T15:02:44.356Z,55.48
2019-02-15T15:05:14.231Z,57.17
2019-02-15T15:07:43.805Z,54.83
2019-02-15T15:10:13.337Z,55.45
2019-02-15T15:12:42.961Z,54.38
2019-02-15T15:15:12.890Z,54.23
2019-02-15T15:17:42.411Z,56.60
2019-02-15T15:20:12.008Z,58.20
2019-02-15T15:22:41.545Z,58.58
2019-02-15T15:25:11.613Z,57.17
2019-02-15T15:27:41.558Z,57.53
2019-02-15T15:30:13.087Z,59.93
2019-02-15T15:32:42.784Z,58.75
2019-02-15T15:35:12.321Z,53.87
2019-02-15T15:37:41.819Z,59.20
2019-02-15T15:40:12.480Z,56.10
2019-02-15T15:42:41.952Z,59.55
2019-02-15T15:45:11.789Z,57.20
2019-02-15T15:47:41.223Z,52.95
2019-02-15T15:50:10.981Z,57.90
2019-02-15T15:52:40.420Z,56.70
2019-02-15T15:55:10.429Z,59.67
2019-02-15T15:57:39.893Z,58.78
2019-02-15T16:00:11.034Z,60.28
2019-02-15T16:02:40.477Z,59.80
2019-02-15T16:05:10.550Z,61.10
2019-02-15T16:07:40.023Z,62.45
2019-02-15T16:10:10.532Z,62.70
2019-02-15T16:12:40.051Z,61.73
2019-02-15T16:15:10.552Z,67.15
2019-02-15T16:17:39.979Z,62.27
2019-02-15T16:20:10.380Z,59.10
2019-02-15T16:22:39.901Z,60.23
2019-02-15T16:25:09.482Z,60.63
2019-02-15T16:27:38.834Z,62.80
2019-02-15T16:30:09.952Z,55.33
2019-02-15T16:32:39.493Z,57.03
2019-02-15T16:35:09.655Z,54.10
2019-02-15T16:37:39.108Z,47.85
2019-02-15T16:40:11.758Z,51.45
2019-02-15T16:42:41.529Z,48.48
2019-02-15T16:45:12.656Z,52.50
2019-02-15T16:47:42.111Z,48.20
2019-02-15T16:50:11.553Z,47.27
2019-02-15T16:52:40.957Z,45.67
2019-02-15T16:55:12.767Z,49.83
2019-02-15T16:57:41.564Z,49.90
2019-02-15T17:00:11.192Z,49.98
2019-02-15T17:02:40.738Z,48.28
2019-02-15T17:05:10.285Z,49.65
2019-02-15T17:07:39.763Z,49.77
2019-02-15T17:10:09.788Z,50.28
2019-02-15T17:12:39.312Z,52.43
2019-02-15T17:15:09.682Z,48.25
2019-02-15T17:17:39.185Z,50.17
2019-02-15T17:20:09.093Z,49.42
2019-02-15T17:22:38.567Z,51.70
2019-02-15T17:25:09.067Z,49.98
2019-02-15T17:27:38.601Z,53.10
2019-02-15T17:30:10.184Z,52.75
2019-02-15T17:32:39.736Z,50.63
2019-02-15T17:35:09.751Z,52.80
2019-02-15T17:37:39.260Z,51.93
2019-02-15T17:40:10.030Z,51.83
2019-02-15T17:42:39.509Z,54.03
2019-02-15T17:45:10.157Z,53.58
2019-02-15T17:47:39.625Z,53.50
2019-02-15T17:50:09.435Z,52.33
2019-02-15T17:52:39.022Z,51.80
2019-02-15T17:55:08.587Z,52.60
2019-02-15T17:57:38.025Z,53.70
2019-02-15T18:00:08.351Z,52.30
2019-02-15T18:02:37.903Z,53.53
2019-02-15T18:05:09.677Z,131.27
2019-02-15T18:07:39.280Z,55.60
2019-02-15T18:10:08.778Z,54.50
2019-02-15T18:12:38.315Z,56.60
2019-02-15T18:15:07.875Z,54.30
2019-02-15T18:17:37.511Z,53.52
2019-02-15T18:20:07.161Z,65.05
2019-02-15T18:22:36.611Z,57.33
2019-02-15T18:25:06.299Z,55.83
2019-02-15T18:27:35.775Z,57.23
2019-02-15T18:30:05.869Z,57.48
2019-02-15T18:32:35.431Z,57.78
2019-02-15T18:35:05.109Z,58.83
2019-02-15T18:37:34.576Z,56.77
2019-02-15T18:40:04.677Z,57.62
2019-02-15T18:42:34.263Z,55.52
2019-02-15T18:45:03.903Z,58.45
2019-02-15T18:47:33.398Z,57.20
2019-02-15T18:50:02.851Z,58.40
2019-02-15T18:52:32.298Z,59.30
2019-02-15T18:55:01.895Z,57.67
2019-02-15T18:57:31.379Z,61.35
2019-02-15T19:00:00.851Z,60.15
2019-02-15T19:02:30.393Z,55.75
2019-02-15T19:04:59.766Z,59.42
2019-02-15T19:07:29.317Z,56.20
2019-02-15T19:09:58.875Z,56.53
2019-02-15T19:12:28.397Z,56.77
2019-02-15T19:14:57.903Z,57.20
2019-02-15T19:17:27.361Z,60.50
2019-02-15T19:19:57.029Z,54.37
2019-02-15T19:22:26.627Z,56.25
2019-02-15T19:24:56.209Z,57.25
2019-02-15T19:27:25.655Z,55.78
2019-02-15T19:29:55.168Z,57.53
2019-02-15T19:32:24.629Z,54.67
2019-02-15T19:34:54.141Z,56.90
2019-02-15T19:37:23.643Z,56.60
2019-02-15T19:39:53.152Z,59.18
2019-02-15T19:42:23.480Z,59.40
2019-02-15T19:44:53.091Z,56.68
2019-02-15T19:47:22.461Z,59.80
2019-02-15T19:49:51.926Z,58.28
2019-02-15T19:52:21.376Z,58.60
2019-02-15T19:54:50.872Z,58.87
2019-02-15T19:57:20.292Z,58.65
2019-02-15T19:59:53.749Z,56.60
2019-02-15T20:02:21.745Z,56.60
2019-02-15T20:04:51.553Z,61.13
2019-02-15T20:07:20.995Z,61.65
2019-02-15T20:09:50.528Z,56.77
2019-02-15T20:12:19.964Z,55.78
2019-02-15T20:14:49.380Z,56.70
2019-02-15T20:17:18.853Z,56.13
2019-02-15T20:19:50.874Z,56.50
2019-02-15T20:22:19.546Z,57.03
2019-02-15T20:24:49.074Z,55.50
2019-02-15T20:27:18.625Z,57.17
2019-02-15T20:29:49.735Z,56.02
2019-02-15T20:32:19.158Z,57.50
2019-02-15T20:34:48.712Z,57.40
2019-02-15T20:37:18.259Z,56.28
2019-02-15T20:39:48.073Z,55.10
2019-02-15T20:42:17.474Z,54.08
2019-02-15T20:44:46.919Z,57.00
2019-02-15T20:47:16.416Z,57.53
2019-02-15T20:49:45.830Z,55.33
2019-02-15T20:52:15.336Z,58.65
2019-02-15T20:54:44.770Z,52.40
2019-02-15T20:57:14.205Z,52.20
2019-02-15T20:59:43.648Z,50.95
2019-02-15T21:02:14.445Z,55.50
2019-02-15T21:04:44.023Z,56.75
2019-02-15T21:07:13.469Z,57.23
2019-02-15T21:09:42.912Z,53.48
2019-02-15T21:12:12.514Z,50.52
2019-02-15T21:14:42.064Z,52.23
2019-02-15T21:17:11.586Z,52.30
2019-02-15T21:19:41.123Z,52.73
2019-02-15T21:22:10.692Z,54.48
2019-02-15T21:24:40.140Z,54.63
2019-02-15T21:27:09.579Z,52.10
2019-02-15T21:29:39.158Z,52.65
2019-02-15T21:32:08.576Z,48.52
2019-02-15T21:34:38.060Z,49.03
2019-02-15T21:37:07.530Z,47.40
2019-02-15T21:39:36.977Z,48.30
2019-02-15T21:42:06.606Z,46.73
2019-02-15T21:44:36.024Z,46.68
2019-02-15T21:47:05.466Z,47.07
2019-02-15T21:49:35.230Z,46.63
2019-02-15T21:52:04.860Z,47.90
2019-02-15T21:54:34.375Z,47.08
2019-02-15T21:57:03.942Z,47.45
2019-02-15T21:59:33.524Z,51.25
2019-02-15T22:02:02.953Z,52.45
2019-02-15T22:04:32.486Z,47.17
2019-02-15T22:07:02.048Z,48.60
2019-02-15T22:09:31.450Z,48.60
2019-02-15T22:12:00.937Z,56.50
2019-02-15T22:14:30.396Z,49.93
2019-02-15T22:16:59.851Z,52.38
2019-02-15T22:19:29.308Z,51.63
2019-02-15T22:21:58.752Z,52.90
2019-02-15T22:24:28.314Z,52.98
2019-02-15T22:26:57.822Z,52.33
2019-02-15T22:29:27.393Z,51.88
2019-02-15T22:31:56.825Z,51.33
2019-02-15T22:34:26.317Z,55.73
2019-02-15T22:36:55.798Z,53.45
2019-02-15T22:39:25.288Z,49.67
2019-02-15T22:41:54.683Z,53.68
2019-02-15T22:44:24.143Z,54.67
2019-02-15T22:46:53.565Z,50.50
2019-02-15T22:49:23.097Z,51.85
2019-02-15T22:51:52.427Z,55.35
2019-02-15T22:54:21.889Z,54.15
2019-02-15T22:56:51.462Z,52.27
2019-02-15T22:59:21.045Z,57.95
2019-02-15T23:01:50.492Z,56.05
2019-02-15T23:04:19.961Z,65.00
2019-02-15T23:06:49.459Z,65.05
2019-02-15T23:09:37.471Z,67.55
2019-02-15T23:12:06.990Z,61.60
2019-02-15T23:14:36.403Z,62.23
2019-02-15T23:17:05.842Z,56.50
2019-02-15T23:19:35.355Z,57.13
2019-02-15T23:22:04.819Z,62.27
2019-02-15T23:24:34.273Z,68.57
2019-02-15T23:27:03.780Z,61.73
2019-02-15T23:29:33.248Z,67.30
2019-02-15T23:32:02.699Z,66.87
2019-02-15T23:34:32.214Z,59.77
2019-02-15T23:37:01.745Z,61.25
2019-02-15T23:39:31.194Z,70.15
2019-02-15T23:42:00.673Z,64.10
2019-02-15T23:44:30.689Z,64.37
2019-02-15T23:47:00.109Z,70.90
2019-02-15T23:49:29.517Z,69.77
2019-02-15T23:51:58.962Z,70.45
2019-02-15T23:54:28.490Z,69.10
2019-02-15T23:56:57.910Z,68.52
2019-02-15T23:59:27.466Z,69.60
